Flight Track Log - Related Links

Times and Time Zones

All times are in EDT time to prevent confusion due to time zone crossing. See the N2229F flight status page for this flight to view local times or setup timezone preferences in your user account.

Time Position Orientation Groundspeed Altitude Reporting Facility
EDT Latitude Longitude Course Direction KTS MPH feet Rate Location/Type
Mon 06:36:12 PM 42.7814 -73.3647 199° South 153 176 3,600  Level Boston Center
Mon 06:37:19 PM 42.7372 -73.3850 199° South 157 181 4,000 422 Climbing Boston Center
Mon 06:38:20 PM 42.6911 -73.4017 195° South 158 182 4,500 709 Climbing Boston Center
Mon 06:39:09 PM 42.6594 -73.4050 184° South 147 169 5,300 1,000 Climbing Boston Center
Mon 06:39:20 PM 42.6539 -73.4067 192° South 129 148 5,500 968 Climbing Boston Center
Mon 06:40:11 PM 42.6275 -73.4125 189° South 120 138 6,300 984 Climbing Boston Center
Mon 06:40:21 PM 42.6225 -73.4139 192° South 110 127 6,500 277 Climbing Boston Center
Mon 06:41:16 PM 42.5917 -73.4297 201° Southwest 145 167 6,600 53 Climbing Boston Center
Mon 06:42:15 PM 42.5531 -73.4528 204° Southwest 155 178 6,600  Level Boston Center
Mon 06:42:29 PM 42.5414 -73.4594 203° Southwest 172 198 6,600  Level Boston Center
Mon 06:43:17 PM 42.5106 -73.4775 203° Southwest 163 188 6,600  Level Boston Center
Mon 06:43:29 PM 42.4978 -73.4858 206° Southwest 173 199 6,600  Level Boston Center
Mon 06:44:18 PM 42.4625 -73.5042 201° Southwest 168 193 6,600 -90 Level Boston Center
Mon 06:44:36 PM 42.4481 -73.5128 204° Southwest 172 198 6,500  Descending Boston Center
Mon 06:45:20 PM 42.4186 -73.5283 201° Southwest 171 197 6,600 98 Climbing Boston Center
Mon 06:45:37 PM 42.4031 -73.5356 199° South 172 198 6,600  Level Boston Center
Mon 06:46:31 PM 42.3653 -73.5547 201° Southwest 170 196 6,600  Level Boston Center
Mon 06:47:24 PM 42.3342 -73.5728 203° Southwest 171 197 6,600  Level Boston Center
Mon 06:48:26 PM 42.2883 -73.5975 202° Southwest 171 197 6,600  Level Boston Center
Mon 06:49:28 PM 42.2353 -73.6275 203° Southwest 171 197 6,600  Level Boston Center
Mon 06:50:29 PM 42.1906 -73.6525 202° Southwest 171 197 6,600  Level Boston Center
Mon 06:51:31 PM 42.1453 -73.6764 201° Southwest 172 198 6,600  Level Boston Center
Mon 06:52:33 PM 42.0994 -73.7017 202° Southwest 172 198 6,600  Level Boston Center
Mon 06:53:35 PM 42.0508 -73.7292 203° Southwest 174 200 6,600  Level Boston Center
Mon 06:54:37 PM 42.0025 -73.7544 201° Southwest 175 201 6,600  Level Boston Center
Mon 06:55:39 PM 41.9581 -73.7778 201° Southwest 174 200 6,600  Level Boston Center
Mon 06:56:40 PM 41.9094 -73.8039 202° Southwest 174 200 6,600  Level Boston Center
Mon 06:57:42 PM 41.8647 -73.8278 202° Southwest 174 200 6,600  Level Boston Center
Mon 06:58:44 PM 41.8192 -73.8533 203° Southwest 175 201 6,600  Level Boston Center
Mon 06:59:46 PM 41.7703 -73.8783 201° Southwest 175 201 6,600  Level Boston Center
Mon 07:00:48 PM 41.7253 -73.9031 202° Southwest 175 201 6,600  Level Boston Center
Mon 07:01:50 PM 41.6764 -73.9300 202° Southwest 175 201 6,600  Level Boston Center
Mon 07:02:51 PM 41.6317 -73.9539 202° Southwest 175 201 6,600  Level Boston Center
Mon 07:03:53 PM 41.5861 -73.9778 201° Southwest 175 201 6,600  Level Boston Center
Mon 07:04:55 PM 41.5378 -74.0033 202° Southwest 175 201 6,600  Level Boston Center
Mon 07:05:57 PM 41.4931 -74.0261 201° Southwest 174 200 6,600  Level Boston Center
Mon 07:06:58 PM 41.4478 -74.0503 202° Southwest 174 200 6,600  Level Boston Center
Mon 07:08:00 PM 41.3997 -74.0767 202° Southwest 174 200 6,600 -48 Level Boston Center
Mon 07:09:02 PM 41.3558 -74.1011 203° Southwest 173 199 6,500 -339 Descending Boston Center
Mon 07:10:04 PM 41.3122 -74.1333 209° Southwest 175 201 5,900 -581 Descending Boston Center
Mon 07:11:06 PM 41.2650 -74.1694 210° Southwest 179 206 5,300 -581 Descending Boston Center
Mon 07:12:08 PM 41.2186 -74.1906 199° South 179 206 4,700 -585 Descending Boston Center
Mon 07:13:09 PM 41.1747 -74.2111 199° South 172 198 4,100 -634 Descending Boston Center
Mon 07:14:11 PM 41.1275 -74.2325 199° South 169 194 3,400 -619 Descending Boston Center
Mon 07:14:46 PM 41.1000 -74.2500 206° Southwest 164 189 3,100 -568 Descending New York TRACON
Mon 07:15:46 PM 41.0500 -74.2667 194° South 162 186 2,500 -600 Descending New York TRACON
Mon 07:18:00 PM 40.9698 -74.2818 201° Southwest  Level FlightAware Approximate
Mon 07:25:00 PM 40.9333 -74.3000 201° Southwest  Level FlightAware Approximate
Mon 07:26:00 PM 40.9795 -74.3000 North  Level FlightAware Approximate
Mon 07:27:00 PM 40.9333 -74.3000 201° Southwest  Level FlightAware Approximate
Mon 07:28:00 PM 40.9795 -74.3000 North  Level FlightAware Approximate
Mon 07:29:00 PM 40.9333 -74.3000 201° Southwest  Level FlightAware Approximate

Login

Don't have an account? Register now (free) for customized features, flight alerts, and more!